sensor_id;sensor_type;location;lat;lon;timestamp;P1;durP1;ratioP1;P2;durP2;ratioP2
65358;SDS011;52491;45.900;6.346;2024-01-30T00:01:12;6.45;;;4.43;;
65358;SDS011;52491;45.900;6.346;2024-01-30T00:03:38;7.03;;;4.55;;
65358;SDS011;52491;45.900;6.346;2024-01-30T00:06:04;6.82;;;4.97;;
65358;SDS011;52491;45.900;6.346;2024-01-30T00:08:29;6.28;;;4.70;;
65358;SDS011;52491;45.900;6.346;2024-01-30T00:10:55;5.88;;;4.00;;
65358;SDS011;52491;45.900;6.346;2024-01-30T00:13:20;5.75;;;4.13;;
65358;SDS011;52491;45.900;6.346;2024-01-30T00:15:46;5.85;;;4.32;;
65358;SDS011;52491;45.900;6.346;2024-01-30T00:18:12;5.15;;;3.83;;
65358;SDS011;52491;45.900;6.346;2024-01-30T00:20:37;4.78;;;3.40;;
65358;SDS011;52491;45.900;6.346;2024-01-30T00:23:03;5.68;;;4.60;;
65358;SDS011;52491;45.900;6.346;2024-01-30T00:25:28;4.70;;;3.97;;
65358;SDS011;52491;45.900;6.346;2024-01-30T00:27:54;5.28;;;3.55;;
65358;SDS011;52491;45.900;6.346;2024-01-30T00:30:20;4.88;;;3.50;;
65358;SDS011;52491;45.900;6.346;2024-01-30T00:32:45;5.68;;;4.18;;
65358;SDS011;52491;45.900;6.346;2024-01-30T00:35:11;4.32;;;3.92;;
65358;SDS011;52491;45.900;6.346;2024-01-30T00:37:37;5.97;;;3.80;;
65358;SDS011;52491;45.900;6.346;2024-01-30T00:40:02;5.28;;;3.92;;
65358;SDS011;52491;45.900;6.346;2024-01-30T00:42:28;5.22;;;3.25;;
65358;SDS011;52491;45.900;6.346;2024-01-30T00:44:54;4.68;;;3.63;;
65358;SDS011;52491;45.900;6.346;2024-01-30T00:47:19;4.43;;;3.80;;
65358;SDS011;52491;45.900;6.346;2024-01-30T00:49:45;4.28;;;3.03;;
65358;SDS011;52491;45.900;6.346;2024-01-30T00:52:11;4.85;;;3.85;;
65358;SDS011;52491;45.900;6.346;2024-01-30T00:54:36;6.45;;;3.72;;
65358;SDS011;52491;45.900;6.346;2024-01-30T00:57:02;4.63;;;3.50;;
65358;SDS011;52491;45.900;6.346;2024-01-30T00:59:28;3.13;;;2.80;;
65358;SDS011;52491;45.900;6.346;2024-01-30T01:01:53;4.00;;;3.40;;
65358;SDS011;52491;45.900;6.346;2024-01-30T01:04:19;3.20;;;2.67;;
65358;SDS011;52491;45.900;6.346;2024-01-30T01:06:46;3.88;;;2.95;;
65358;SDS011;52491;45.900;6.346;2024-01-30T01:09:12;3.58;;;2.60;;
65358;SDS011;52491;45.900;6.346;2024-01-30T01:11:37;3.85;;;2.85;;
65358;SDS011;52491;45.900;6.346;2024-01-30T01:14:03;2.90;;;2.40;;
65358;SDS011;52491;45.900;6.346;2024-01-30T01:16:29;3.13;;;2.53;;
65358;SDS011;52491;45.900;6.346;2024-01-30T01:18:55;3.92;;;3.47;;
65358;SDS011;52491;45.900;6.346;2024-01-30T01:21:21;3.97;;;2.35;;
65358;SDS011;52491;45.900;6.346;2024-01-30T01:23:48;3.40;;;2.60;;
65358;SDS011;52491;45.900;6.346;2024-01-30T01:26:13;4.07;;;2.60;;
65358;SDS011;52491;45.900;6.346;2024-01-30T01:28:40;4.60;;;2.45;;
65358;SDS011;52491;45.900;6.346;2024-01-30T01:31:06;2.92;;;2.15;;
65358;SDS011;52491;45.900;6.346;2024-01-30T01:33:32;2.60;;;2.30;;
65358;SDS011;52491;45.900;6.346;2024-01-30T01:35:58;2.97;;;2.67;;
65358;SDS011;52491;45.900;6.346;2024-01-30T01:38:24;3.75;;;2.72;;
65358;SDS011;52491;45.900;6.346;2024-01-30T01:40:50;3.65;;;2.65;;
65358;SDS011;52491;45.900;6.346;2024-01-30T01:43:16;3.08;;;2.58;;
65358;SDS011;52491;45.900;6.346;2024-01-30T01:45:41;2.30;;;2.10;;
65358;SDS011;52491;45.900;6.346;2024-01-30T01:48:07;3.38;;;2.63;;
65358;SDS011;52491;45.900;6.346;2024-01-30T01:50:34;3.28;;;2.28;;
65358;SDS011;52491;45.900;6.346;2024-01-30T01:53:01;4.18;;;2.40;;
65358;SDS011;52491;45.900;6.346;2024-01-30T01:55:27;3.47;;;1.95;;
65358;SDS011;52491;45.900;6.346;2024-01-30T01:57:54;3.15;;;2.20;;
65358;SDS011;52491;45.900;6.346;2024-01-30T02:00:20;2.90;;;2.38;;
65358;SDS011;52491;45.900;6.346;2024-01-30T02:02:46;3.20;;;2.58;;
65358;SDS011;52491;45.900;6.346;2024-01-30T02:05:14;2.38;;;1.90;;
65358;SDS011;52491;45.900;6.346;2024-01-30T02:07:41;3.63;;;2.42;;
65358;SDS011;52491;45.900;6.346;2024-01-30T02:10:07;2.40;;;2.17;;
65358;SDS011;52491;45.900;6.346;2024-01-30T02:12:34;2.08;;;1.88;;
65358;SDS011;52491;45.900;6.346;2024-01-30T02:15:00;2.75;;;2.22;;
65358;SDS011;52491;45.900;6.346;2024-01-30T02:17:26;2.40;;;2.03;;
65358;SDS011;52491;45.900;6.346;2024-01-30T02:19:51;1.70;;;1.52;;
65358;SDS011;52491;45.900;6.346;2024-01-30T02:22:17;1.80;;;1.58;;
65358;SDS011;52491;45.900;6.346;2024-01-30T02:24:44;2.30;;;2.08;;
65358;SDS011;52491;45.900;6.346;2024-01-30T02:27:09;2.15;;;1.95;;
65358;SDS011;52491;45.900;6.346;2024-01-30T02:29:35;1.92;;;1.80;;
65358;SDS011;52491;45.900;6.346;2024-01-30T02:32:01;2.08;;;1.83;;
65358;SDS011;52491;45.900;6.346;2024-01-30T02:34:26;2.80;;;1.95;;
65358;SDS011;52491;45.900;6.346;2024-01-30T02:36:51;2.38;;;1.90;;
65358;SDS011;52491;45.900;6.346;2024-01-30T02:39:17;2.55;;;2.35;;
65358;SDS011;52491;45.900;6.346;2024-01-30T02:41:42;1.60;;;1.38;;
65358;SDS011;52491;45.900;6.346;2024-01-30T02:44:08;2.13;;;1.27;;
65358;SDS011;52491;45.900;6.346;2024-01-30T02:46:33;3.55;;;1.48;;
65358;SDS011;52491;45.900;6.346;2024-01-30T02:48:59;3.28;;;1.77;;
65358;SDS011;52491;45.900;6.346;2024-01-30T02:51:24;3.50;;;1.85;;
65358;SDS011;52491;45.900;6.346;2024-01-30T02:53:50;1.90;;;1.58;;
65358;SDS011;52491;45.900;6.346;2024-01-30T02:56:15;2.42;;;1.48;;
65358;SDS011;52491;45.900;6.346;2024-01-30T02:58:41;2.45;;;1.75;;
65358;SDS011;52491;45.900;6.346;2024-01-30T03:01:06;1.65;;;1.50;;
65358;SDS011;52491;45.900;6.346;2024-01-30T03:03:32;2.97;;;1.85;;
65358;SDS011;52491;45.900;6.346;2024-01-30T03:06:00;2.38;;;1.52;;
65358;SDS011;52491;45.900;6.346;2024-01-30T03:08:25;1.70;;;1.52;;
65358;SDS011;52491;45.900;6.346;2024-01-30T03:10:51;2.25;;;1.92;;
65358;SDS011;52491;45.900;6.346;2024-01-30T03:13:16;1.38;;;1.20;;
65358;SDS011;52491;45.900;6.346;2024-01-30T03:15:42;2.15;;;1.65;;
65358;SDS011;52491;45.900;6.346;2024-01-30T03:18:07;1.23;;;1.13;;
65358;SDS011;52491;45.900;6.346;2024-01-30T03:20:33;2.55;;;1.88;;
65358;SDS011;52491;45.900;6.346;2024-01-30T03:22:59;1.67;;;1.20;;
65358;SDS011;52491;45.900;6.346;2024-01-30T03:25:25;3.80;;;1.45;;
65358;SDS011;52491;45.900;6.346;2024-01-30T03:27:51;2.30;;;1.27;;
65358;SDS011;52491;45.900;6.346;2024-01-30T03:30:16;8.45;;;1.25;;
65358;SDS011;52491;45.900;6.346;2024-01-30T03:32:42;2.72;;;1.38;;
65358;SDS011;52491;45.900;6.346;2024-01-30T03:35:09;2.65;;;1.63;;
65358;SDS011;52491;45.900;6.346;2024-01-30T03:37:34;1.38;;;1.15;;
65358;SDS011;52491;45.900;6.346;2024-01-30T03:40:00;1.80;;;1.15;;
65358;SDS011;52491;45.900;6.346;2024-01-30T03:42:26;3.85;;;1.35;;
65358;SDS011;52491;45.900;6.346;2024-01-30T03:44:52;1.88;;;1.38;;
65358;SDS011;52491;45.900;6.346;2024-01-30T03:47:18;1.80;;;1.13;;
65358;SDS011;52491;45.900;6.346;2024-01-30T03:49:45;1.98;;;1.05;;
65358;SDS011;52491;45.900;6.346;2024-01-30T03:52:10;1.70;;;1.50;;
65358;SDS011;52491;45.900;6.346;2024-01-30T03:54:36;2.38;;;1.05;;
65358;SDS011;52491;45.900;6.346;2024-01-30T03:57:02;5.18;;;1.10;;
65358;SDS011;52491;45.900;6.346;2024-01-30T03:59:27;2.50;;;1.50;;
65358;SDS011;52491;45.900;6.346;2024-01-30T04:01:53;1.50;;;1.27;;
65358;SDS011;52491;45.900;6.346;2024-01-30T04:04:18;5.00;;;1.25;;
65358;SDS011;52491;45.900;6.346;2024-01-30T04:06:44;1.45;;;1.20;;
65358;SDS011;52491;45.900;6.346;2024-01-30T04:09:10;2.00;;;1.23;;
65358;SDS011;52491;45.900;6.346;2024-01-30T04:11:36;1.20;;;1.00;;
65358;SDS011;52491;45.900;6.346;2024-01-30T04:14:02;2.13;;;1.40;;
65358;SDS011;52491;45.900;6.346;2024-01-30T04:16:27;1.70;;;1.20;;
65358;SDS011;52491;45.900;6.346;2024-01-30T04:18:53;1.20;;;1.08;;
65358;SDS011;52491;45.900;6.346;2024-01-30T04:21:20;2.83;;;0.93;;
65358;SDS011;52491;45.900;6.346;2024-01-30T04:23:46;1.63;;;0.93;;
65358;SDS011;52491;45.900;6.346;2024-01-30T04:26:12;1.38;;;0.70;;
65358;SDS011;52491;45.900;6.346;2024-01-30T04:28:37;1.13;;;1.05;;
65358;SDS011;52491;45.900;6.346;2024-01-30T04:31:03;1.40;;;1.25;;
65358;SDS011;52491;45.900;6.346;2024-01-30T04:33:28;1.20;;;0.85;;
65358;SDS011;52491;45.900;6.346;2024-01-30T04:35:54;1.38;;;1.00;;
65358;SDS011;52491;45.900;6.346;2024-01-30T04:38:19;1.38;;;1.00;;
65358;SDS011;52491;45.900;6.346;2024-01-30T04:40:45;1.80;;;1.10;;
65358;SDS011;52491;45.900;6.346;2024-01-30T04:43:10;3.10;;;1.00;;
65358;SDS011;52491;45.900;6.346;2024-01-30T04:45:36;0.90;;;0.80;;
65358;SDS011;52491;45.900;6.346;2024-01-30T04:48:01;3.20;;;0.93;;
65358;SDS011;52491;45.900;6.346;2024-01-30T04:50:27;1.10;;;1.00;;
65358;SDS011;52491;45.900;6.346;2024-01-30T04:52:53;1.23;;;0.90;;
65358;SDS011;52491;45.900;6.346;2024-01-30T04:55:18;1.85;;;1.15;;
65358;SDS011;52491;45.900;6.346;2024-01-30T04:57:43;1.35;;;0.98;;
65358;SDS011;52491;45.900;6.346;2024-01-30T05:00:09;1.25;;;0.90;;
65358;SDS011;52491;45.900;6.346;2024-01-30T05:02:35;2.85;;;1.10;;
65358;SDS011;52491;45.900;6.346;2024-01-30T05:05:00;1.02;;;0.93;;
65358;SDS011;52491;45.900;6.346;2024-01-30T05:07:26;1.17;;;0.95;;
65358;SDS011;52491;45.900;6.346;2024-01-30T05:09:51;1.00;;;0.90;;
65358;SDS011;52491;45.900;6.346;2024-01-30T05:12:17;1.52;;;0.90;;
65358;SDS011;52491;45.900;6.346;2024-01-30T05:14:43;0.95;;;0.82;;
65358;SDS011;52491;45.900;6.346;2024-01-30T05:17:08;0.93;;;0.82;;
65358;SDS011;52491;45.900;6.346;2024-01-30T05:19:35;1.30;;;1.13;;
65358;SDS011;52491;45.900;6.346;2024-01-30T05:22:01;1.00;;;0.90;;
65358;SDS011;52491;45.900;6.346;2024-01-30T05:24:26;1.52;;;1.25;;
65358;SDS011;52491;45.900;6.346;2024-01-30T05:26:52;0.88;;;0.70;;
65358;SDS011;52491;45.900;6.346;2024-01-30T05:29:17;1.48;;;1.25;;
65358;SDS011;52491;45.900;6.346;2024-01-30T05:31:43;3.45;;;0.90;;
65358;SDS011;52491;45.900;6.346;2024-01-30T05:34:08;2.55;;;0.90;;
65358;SDS011;52491;45.900;6.346;2024-01-30T05:36:34;1.52;;;1.00;;
65358;SDS011;52491;45.900;6.346;2024-01-30T05:39:00;1.30;;;0.85;;
65358;SDS011;52491;45.900;6.346;2024-01-30T05:41:26;2.05;;;1.00;;
65358;SDS011;52491;45.900;6.346;2024-01-30T05:43:54;0.80;;;0.68;;
65358;SDS011;52491;45.900;6.346;2024-01-30T05:46:19;1.13;;;0.90;;
65358;SDS011;52491;45.900;6.346;2024-01-30T05:48:45;2.30;;;1.00;;
65358;SDS011;52491;45.900;6.346;2024-01-30T05:51:10;1.35;;;1.10;;
65358;SDS011;52491;45.900;6.346;2024-01-30T05:53:36;1.10;;;0.98;;
65358;SDS011;52491;45.900;6.346;2024-01-30T05:56:02;2.03;;;0.88;;
65358;SDS011;52491;45.900;6.346;2024-01-30T05:58:28;1.02;;;0.70;;
65358;SDS011;52491;45.900;6.346;2024-01-30T06:00:53;0.75;;;0.75;;
65358;SDS011;52491;45.900;6.346;2024-01-30T06:03:19;1.90;;;1.05;;
65358;SDS011;52491;45.900;6.346;2024-01-30T06:05:45;1.38;;;0.95;;
65358;SDS011;52491;45.900;6.346;2024-01-30T06:08:10;1.83;;;0.93;;
65358;SDS011;52491;45.900;6.346;2024-01-30T06:10:35;7.78;;;1.25;;
65358;SDS011;52491;45.900;6.346;2024-01-30T06:13:01;5.85;;;1.60;;
65358;SDS011;52491;45.900;6.346;2024-01-30T06:15:26;4.72;;;1.60;;
65358;SDS011;52491;45.900;6.346;2024-01-30T06:17:54;3.67;;;1.13;;
65358;SDS011;52491;45.900;6.346;2024-01-30T06:20:20;4.00;;;1.73;;
65358;SDS011;52491;45.900;6.346;2024-01-30T06:22:46;3.13;;;1.35;;
65358;SDS011;52491;45.900;6.346;2024-01-30T06:25:11;7.53;;;1.70;;
65358;SDS011;52491;45.900;6.346;2024-01-30T06:27:37;2.80;;;1.60;;
65358;SDS011;52491;45.900;6.346;2024-01-30T06:30:03;2.25;;;1.52;;
65358;SDS011;52491;45.900;6.346;2024-01-30T06:32:29;9.20;;;2.67;;
65358;SDS011;52491;45.900;6.346;2024-01-30T06:34:59;2.40;;;1.95;;
65358;SDS011;52491;45.900;6.346;2024-01-30T06:37:28;7.40;;;2.45;;
65358;SDS011;52491;45.900;6.346;2024-01-30T06:39:53;6.68;;;2.30;;
65358;SDS011;52491;45.900;6.346;2024-01-30T06:42:19;3.03;;;1.90;;
65358;SDS011;52491;45.900;6.346;2024-01-30T06:44:44;4.20;;;1.58;;
65358;SDS011;52491;45.900;6.346;2024-01-30T06:47:10;5.40;;;2.08;;
65358;SDS011;52491;45.900;6.346;2024-01-30T06:49:36;10.07;;;2.95;;
65358;SDS011;52491;45.900;6.346;2024-01-30T06:52:07;10.63;;;1.77;;
65358;SDS011;52491;45.900;6.346;2024-01-30T06:54:33;2.97;;;1.73;;
65358;SDS011;52491;45.900;6.346;2024-01-30T06:56:59;2.53;;;1.80;;
65358;SDS011;52491;45.900;6.346;2024-01-30T06:59:24;2.85;;;1.67;;
65358;SDS011;52491;45.900;6.346;2024-01-30T07:01:50;4.20;;;2.63;;
65358;SDS011;52491;45.900;6.346;2024-01-30T07:04:15;4.18;;;2.03;;
65358;SDS011;52491;45.900;6.346;2024-01-30T07:06:41;4.60;;;2.10;;
65358;SDS011;52491;45.900;6.346;2024-01-30T07:09:07;5.40;;;1.67;;
65358;SDS011;52491;45.900;6.346;2024-01-30T07:11:33;2.47;;;2.00;;
65358;SDS011;52491;45.900;6.346;2024-01-30T07:13:59;2.47;;;1.88;;
65358;SDS011;52491;45.900;6.346;2024-01-30T07:16:24;2.70;;;2.40;;
65358;SDS011;52491;45.900;6.346;2024-01-30T07:18:50;3.50;;;2.15;;
65358;SDS011;52491;45.900;6.346;2024-01-30T07:21:15;3.13;;;2.45;;
65358;SDS011;52491;45.900;6.346;2024-01-30T07:23:41;4.20;;;2.30;;
65358;SDS011;52491;45.900;6.346;2024-01-30T07:26:07;4.53;;;2.15;;
65358;SDS011;52491;45.900;6.346;2024-01-30T07:28:34;9.10;;;2.78;;
65358;SDS011;52491;45.900;6.346;2024-01-30T07:31:03;3.50;;;2.20;;
65358;SDS011;52491;45.900;6.346;2024-01-30T07:33:29;3.53;;;2.90;;
65358;SDS011;52491;45.900;6.346;2024-01-30T07:35:54;5.00;;;2.58;;
65358;SDS011;52491;45.900;6.346;2024-01-30T07:38:20;4.35;;;2.50;;
65358;SDS011;52491;45.900;6.346;2024-01-30T07:40:45;3.25;;;2.33;;
65358;SDS011;52491;45.900;6.346;2024-01-30T07:43:11;5.10;;;2.58;;
65358;SDS011;52491;45.900;6.346;2024-01-30T07:45:36;3.85;;;2.50;;
65358;SDS011;52491;45.900;6.346;2024-01-30T07:48:03;4.00;;;2.72;;
65358;SDS011;52491;45.900;6.346;2024-01-30T07:50:30;5.53;;;2.97;;
65358;SDS011;52491;45.900;6.346;2024-01-30T07:52:56;3.67;;;2.25;;
65358;SDS011;52491;45.900;6.346;2024-01-30T07:55:22;3.45;;;3.05;;
65358;SDS011;52491;45.900;6.346;2024-01-30T07:57:52;3.38;;;2.65;;
65358;SDS011;52491;45.900;6.346;2024-01-30T08:00:18;3.47;;;2.97;;
65358;SDS011;52491;45.900;6.346;2024-01-30T08:02:54;3.55;;;2.75;;
65358;SDS011;52491;45.900;6.346;2024-01-30T08:05:20;5.50;;;3.08;;
65358;SDS011;52491;45.900;6.346;2024-01-30T08:07:47;3.67;;;2.90;;
65358;SDS011;52491;45.900;6.346;2024-01-30T08:10:14;3.05;;;2.60;;
65358;SDS011;52491;45.900;6.346;2024-01-30T08:12:40;3.95;;;2.72;;
65358;SDS011;52491;45.900;6.346;2024-01-30T08:15:06;4.20;;;3.00;;
65358;SDS011;52491;45.900;6.346;2024-01-30T08:17:32;3.13;;;2.70;;
65358;SDS011;52491;45.900;6.346;2024-01-30T08:19:58;3.33;;;2.75;;
65358;SDS011;52491;45.900;6.346;2024-01-30T08:22:24;3.63;;;3.20;;
65358;SDS011;52491;45.900;6.346;2024-01-30T08:24:49;3.83;;;3.03;;
65358;SDS011;52491;45.900;6.346;2024-01-30T08:27:15;2.95;;;2.30;;
65358;SDS011;52491;45.900;6.346;2024-01-30T08:29:40;3.75;;;2.90;;
65358;SDS011;52491;45.900;6.346;2024-01-30T08:32:06;5.00;;;3.38;;
65358;SDS011;52491;45.900;6.346;2024-01-30T08:34:32;3.33;;;2.60;;
65358;SDS011;52491;45.900;6.346;2024-01-30T08:36:57;3.38;;;2.95;;
65358;SDS011;52491;45.900;6.346;2024-01-30T08:39:23;3.83;;;2.58;;
65358;SDS011;52491;45.900;6.346;2024-01-30T08:41:48;5.38;;;2.75;;
65358;SDS011;52491;45.900;6.346;2024-01-30T08:44:14;3.80;;;2.90;;
65358;SDS011;52491;45.900;6.346;2024-01-30T08:46:39;5.88;;;3.17;;
65358;SDS011;52491;45.900;6.346;2024-01-30T08:49:05;4.63;;;3.42;;
65358;SDS011;52491;45.900;6.346;2024-01-30T08:51:30;5.55;;;3.15;;
65358;SDS011;52491;45.900;6.346;2024-01-30T08:53:56;4.90;;;3.13;;
65358;SDS011;52491;45.900;6.346;2024-01-30T08:56:22;6.00;;;3.00;;
65358;SDS011;52491;45.900;6.346;2024-01-30T08:58:47;4.20;;;3.05;;
65358;SDS011;52491;45.900;6.346;2024-01-30T09:01:13;5.38;;;3.22;;
65358;SDS011;52491;45.900;6.346;2024-01-30T09:03:39;5.45;;;3.90;;
65358;SDS011;52491;45.900;6.346;2024-01-30T09:06:11;4.78;;;4.13;;
65358;SDS011;52491;45.900;6.346;2024-01-30T09:08:37;4.50;;;3.58;;
65358;SDS011;52491;45.900;6.346;2024-01-30T09:11:09;5.07;;;4.00;;
65358;SDS011;52491;45.900;6.346;2024-01-30T09:13:35;4.07;;;3.67;;
65358;SDS011;52491;45.900;6.346;2024-01-30T09:16:01;4.82;;;3.97;;
65358;SDS011;52491;45.900;6.346;2024-01-30T09:18:27;4.75;;;3.65;;
65358;SDS011;52491;45.900;6.346;2024-01-30T09:20:52;4.35;;;3.67;;
65358;SDS011;52491;45.900;6.346;2024-01-30T09:23:18;3.70;;;3.25;;
65358;SDS011;52491;45.900;6.346;2024-01-30T09:25:44;4.65;;;3.58;;
65358;SDS011;52491;45.900;6.346;2024-01-30T09:28:10;4.47;;;3.85;;
65358;SDS011;52491;45.900;6.346;2024-01-30T09:30:36;5.32;;;3.92;;
65358;SDS011;52491;45.900;6.346;2024-01-30T09:33:02;5.00;;;3.75;;
65358;SDS011;52491;45.900;6.346;2024-01-30T09:35:27;5.20;;;3.85;;
65358;SDS011;52491;45.900;6.346;2024-01-30T09:37:53;6.30;;;3.92;;
65358;SDS011;52491;45.900;6.346;2024-01-30T09:40:18;5.45;;;4.20;;
65358;SDS011;52491;45.900;6.346;2024-01-30T09:42:48;5.03;;;3.72;;
65358;SDS011;52491;45.900;6.346;2024-01-30T09:45:15;4.72;;;3.45;;
65358;SDS011;52491;45.900;6.346;2024-01-30T09:47:43;4.03;;;3.25;;
65358;SDS011;52491;45.900;6.346;2024-01-30T09:50:10;4.47;;;3.67;;
65358;SDS011;52491;45.900;6.346;2024-01-30T09:52:36;6.55;;;3.55;;
65358;SDS011;52491;45.900;6.346;2024-01-30T09:55:02;4.03;;;3.25;;
65358;SDS011;52491;45.900;6.346;2024-01-30T09:57:30;4.75;;;3.45;;
65358;SDS011;52491;45.900;6.346;2024-01-30T09:59:55;3.60;;;2.97;;
65358;SDS011;52491;45.900;6.346;2024-01-30T10:02:21;3.97;;;3.00;;
65358;SDS011;52491;45.900;6.346;2024-01-30T10:04:50;3.85;;;3.22;;
65358;SDS011;52491;45.900;6.346;2024-01-30T10:07:19;3.75;;;3.22;;
65358;SDS011;52491;45.900;6.346;2024-01-30T10:09:45;5.07;;;4.13;;
65358;SDS011;52491;45.900;6.346;2024-01-30T10:12:11;4.82;;;3.67;;
65358;SDS011;52491;45.900;6.346;2024-01-30T10:14:41;4.38;;;3.25;;
65358;SDS011;52491;45.900;6.346;2024-01-30T10:17:07;3.13;;;2.83;;
65358;SDS011;52491;45.900;6.346;2024-01-30T10:19:34;5.07;;;4.00;;
65358;SDS011;52491;45.900;6.346;2024-01-30T10:22:00;4.45;;;3.10;;
65358;SDS011;52491;45.900;6.346;2024-01-30T10:24:26;3.88;;;3.00;;
65358;SDS011;52491;45.900;6.346;2024-01-30T10:26:53;3.60;;;3.20;;
65358;SDS011;52491;45.900;6.346;2024-01-30T10:29:18;4.53;;;3.15;;
65358;SDS011;52491;45.900;6.346;2024-01-30T10:31:44;3.65;;;2.90;;
65358;SDS011;52491;45.900;6.346;2024-01-30T10:34:09;3.55;;;3.08;;
65358;SDS011;52491;45.900;6.346;2024-01-30T10:36:40;3.67;;;2.80;;
65358;SDS011;52491;45.900;6.346;2024-01-30T10:39:08;4.20;;;2.88;;
65358;SDS011;52491;45.900;6.346;2024-01-30T10:41:35;2.80;;;2.50;;
65358;SDS011;52491;45.900;6.346;2024-01-30T10:44:08;3.83;;;3.30;;
65358;SDS011;52491;45.900;6.346;2024-01-30T10:46:35;4.22;;;3.45;;
65358;SDS011;52491;45.900;6.346;2024-01-30T10:49:02;5.18;;;3.70;;
65358;SDS011;52491;45.900;6.346;2024-01-30T10:51:29;4.30;;;3.25;;
65358;SDS011;52491;45.900;6.346;2024-01-30T10:53:56;2.42;;;2.22;;
65358;SDS011;52491;45.900;6.346;2024-01-30T10:56:23;4.47;;;2.97;;
65358;SDS011;52491;45.900;6.346;2024-01-30T10:58:52;3.17;;;2.70;;
65358;SDS011;52491;45.900;6.346;2024-01-30T11:01:19;3.63;;;3.08;;
65358;SDS011;52491;45.900;6.346;2024-01-30T11:03:48;2.72;;;2.33;;
65358;SDS011;52491;45.900;6.346;2024-01-30T11:06:17;3.05;;;2.50;;
65358;SDS011;52491;45.900;6.346;2024-01-30T11:08:46;4.50;;;2.83;;
65358;SDS011;52491;45.900;6.346;2024-01-30T11:11:26;4.15;;;2.53;;
65358;SDS011;52491;45.900;6.346;2024-01-30T11:13:51;3.35;;;2.83;;
65358;SDS011;52491;45.900;6.346;2024-01-30T11:16:17;3.33;;;2.65;;
65358;SDS011;52491;45.900;6.346;2024-01-30T11:18:42;3.20;;;2.40;;
65358;SDS011;52491;45.900;6.346;2024-01-30T11:21:08;3.15;;;2.53;;
65358;SDS011;52491;45.900;6.346;2024-01-30T11:23:33;2.88;;;2.20;;
65358;SDS011;52491;45.900;6.346;2024-01-30T11:26:00;2.55;;;2.35;;
65358;SDS011;52491;45.900;6.346;2024-01-30T11:28:26;2.58;;;2.28;;
65358;SDS011;52491;45.900;6.346;2024-01-30T11:31:04;2.70;;;2.30;;
65358;SDS011;52491;45.900;6.346;2024-01-30T11:33:32;3.38;;;2.63;;
65358;SDS011;52491;45.900;6.346;2024-01-30T11:35:59;2.85;;;2.15;;
65358;SDS011;52491;45.900;6.346;2024-01-30T11:38:25;3.03;;;2.20;;
65358;SDS011;52491;45.900;6.346;2024-01-30T11:40:53;3.45;;;2.42;;
65358;SDS011;52491;45.900;6.346;2024-01-30T11:43:19;3.00;;;2.42;;
65358;SDS011;52491;45.900;6.346;2024-01-30T11:45:45;4.35;;;2.22;;
65358;SDS011;52491;45.900;6.346;2024-01-30T11:48:11;6.93;;;3.13;;
65358;SDS011;52491;45.900;6.346;2024-01-30T11:50:38;5.57;;;2.75;;
65358;SDS011;52491;45.900;6.346;2024-01-30T11:53:04;3.30;;;2.85;;
65358;SDS011;52491;45.900;6.346;2024-01-30T11:55:30;7.28;;;3.30;;
65358;SDS011;52491;45.900;6.346;2024-01-30T11:57:58;5.07;;;2.85;;
65358;SDS011;52491;45.900;6.346;2024-01-30T12:00:24;6.22;;;3.08;;
65358;SDS011;52491;45.900;6.346;2024-01-30T12:02:51;5.43;;;3.15;;
65358;SDS011;52491;45.900;6.346;2024-01-30T12:05:21;6.68;;;3.22;;
65358;SDS011;52491;45.900;6.346;2024-01-30T12:07:47;7.43;;;3.45;;
65358;SDS011;52491;45.900;6.346;2024-01-30T12:10:13;16.10;;;4.50;;
65358;SDS011;52491;45.900;6.346;2024-01-30T12:12:39;10.98;;;3.33;;
65358;SDS011;52491;45.900;6.346;2024-01-30T12:15:06;4.57;;;2.65;;
65358;SDS011;52491;45.900;6.346;2024-01-30T12:17:32;5.53;;;3.13;;
65358;SDS011;52491;45.900;6.346;2024-01-30T12:25:07;5.55;;;2.97;;
65358;SDS011;52491;45.900;6.346;2024-01-30T12:27:36;8.65;;;3.45;;
65358;SDS011;52491;45.900;6.346;2024-01-30T12:30:06;4.30;;;2.45;;
65358;SDS011;52491;45.900;6.346;2024-01-30T12:32:36;7.68;;;3.08;;
65358;SDS011;52491;45.900;6.346;2024-01-30T12:35:06;10.57;;;3.75;;
65358;SDS011;52491;45.900;6.346;2024-01-30T12:37:33;4.55;;;2.15;;
65358;SDS011;52491;45.900;6.346;2024-01-30T12:39:59;6.05;;;2.83;;
65358;SDS011;52491;45.900;6.346;2024-01-30T12:42:26;4.68;;;2.80;;
65358;SDS011;52491;45.900;6.346;2024-01-30T12:44:52;5.72;;;2.90;;
65358;SDS011;52491;45.900;6.346;2024-01-30T12:47:18;3.88;;;2.65;;
65358;SDS011;52491;45.900;6.346;2024-01-30T12:49:46;5.32;;;2.88;;
65358;SDS011;52491;45.900;6.346;2024-01-30T12:52:13;2.95;;;2.42;;
65358;SDS011;52491;45.900;6.346;2024-01-30T12:54:39;6.45;;;3.17;;
65358;SDS011;52491;45.900;6.346;2024-01-30T12:57:05;5.30;;;2.72;;
65358;SDS011;52491;45.900;6.346;2024-01-30T12:59:31;4.35;;;2.67;;
65358;SDS011;52491;45.900;6.346;2024-01-30T13:01:58;5.68;;;2.92;;
65358;SDS011;52491;45.900;6.346;2024-01-30T13:04:25;3.28;;;2.42;;
65358;SDS011;52491;45.900;6.346;2024-01-30T13:06:51;4.57;;;2.83;;
65358;SDS011;52491;45.900;6.346;2024-01-30T13:09:16;5.38;;;3.13;;
65358;SDS011;52491;45.900;6.346;2024-01-30T13:11:42;3.25;;;2.25;;
65358;SDS011;52491;45.900;6.346;2024-01-30T13:14:07;3.72;;;2.60;;
65358;SDS011;52491;45.900;6.346;2024-01-30T13:16:33;4.90;;;2.95;;
65358;SDS011;52491;45.900;6.346;2024-01-30T13:18:59;3.00;;;1.80;;
65358;SDS011;52491;45.900;6.346;2024-01-30T13:21:26;3.78;;;2.15;;
65358;SDS011;52491;45.900;6.346;2024-01-30T13:23:51;4.55;;;2.70;;
65358;SDS011;52491;45.900;6.346;2024-01-30T13:26:19;4.50;;;2.47;;
65358;SDS011;52491;45.900;6.346;2024-01-30T13:31:38;3.83;;;2.40;;
65358;SDS011;52491;45.900;6.346;2024-01-30T13:34:04;4.15;;;2.53;;
65358;SDS011;52491;45.900;6.346;2024-01-30T13:36:32;3.65;;;2.38;;
65358;SDS011;52491;45.900;6.346;2024-01-30T13:42:19;3.08;;;2.20;;
65358;SDS011;52491;45.900;6.346;2024-01-30T13:44:45;2.75;;;2.53;;
65358;SDS011;52491;45.900;6.346;2024-01-30T13:47:10;6.10;;;2.33;;
65358;SDS011;52491;45.900;6.346;2024-01-30T13:49:36;3.08;;;2.13;;
65358;SDS011;52491;45.900;6.346;2024-01-30T13:52:01;6.28;;;2.30;;
65358;SDS011;52491;45.900;6.346;2024-01-30T13:54:28;4.68;;;2.22;;
65358;SDS011;52491;45.900;6.346;2024-01-30T13:56:54;3.22;;;2.15;;
65358;SDS011;52491;45.900;6.346;2024-01-30T13:59:20;2.72;;;2.45;;
65358;SDS011;52491;45.900;6.346;2024-01-30T14:01:49;4.57;;;2.60;;
65358;SDS011;52491;45.900;6.346;2024-01-30T14:04:16;3.67;;;2.45;;
65358;SDS011;52491;45.900;6.346;2024-01-30T14:06:42;2.30;;;2.10;;
65358;SDS011;52491;45.900;6.346;2024-01-30T14:09:08;2.78;;;2.03;;
65358;SDS011;52491;45.900;6.346;2024-01-30T14:11:34;2.65;;;1.90;;
65358;SDS011;52491;45.900;6.346;2024-01-30T14:13:59;3.17;;;1.75;;
65358;SDS011;52491;45.900;6.346;2024-01-30T14:16:25;2.13;;;1.92;;
65358;SDS011;52491;45.900;6.346;2024-01-30T14:18:50;3.25;;;1.90;;
65358;SDS011;52491;45.900;6.346;2024-01-30T14:21:16;2.70;;;1.58;;
65358;SDS011;52491;45.900;6.346;2024-01-30T14:23:41;3.80;;;2.08;;
65358;SDS011;52491;45.900;6.346;2024-01-30T14:26:07;2.95;;;1.85;;
65358;SDS011;52491;45.900;6.346;2024-01-30T14:28:32;2.75;;;1.90;;
65358;SDS011;52491;45.900;6.346;2024-01-30T14:30:58;4.38;;;2.17;;
65358;SDS011;52491;45.900;6.346;2024-01-30T14:33:24;5.75;;;2.60;;
65358;SDS011;52491;45.900;6.346;2024-01-30T14:35:49;2.38;;;2.13;;
65358;SDS011;52491;45.900;6.346;2024-01-30T14:38:15;2.47;;;1.50;;
65358;SDS011;52491;45.900;6.346;2024-01-30T14:40:41;2.95;;;1.77;;
65358;SDS011;52491;45.900;6.346;2024-01-30T14:43:06;3.30;;;2.00;;
65358;SDS011;52491;45.900;6.346;2024-01-30T14:45:32;2.85;;;2.05;;
65358;SDS011;52491;45.900;6.346;2024-01-30T14:47:58;3.03;;;1.98;;
65358;SDS011;52491;45.900;6.346;2024-01-30T14:50:24;2.90;;;1.77;;
65358;SDS011;52491;45.900;6.346;2024-01-30T14:52:51;1.80;;;1.52;;